createdAt,value
2023-01-01T00:01:08.034Z,17.90
2023-01-01T00:02:41.088Z,17.80
2023-01-01T00:04:16.237Z,17.70
2023-01-01T00:05:49.374Z,17.60
2023-01-01T00:07:22.437Z,17.60
2023-01-01T00:09:09.343Z,17.60
2023-01-01T00:10:43.771Z,17.70
2023-01-01T00:12:16.857Z,17.80
2023-01-01T00:13:51.277Z,17.80
2023-01-01T00:15:24.632Z,17.80
2023-01-01T00:16:57.948Z,17.80
2023-01-01T00:18:30.985Z,17.70
2023-01-01T00:20:04.489Z,17.80
2023-01-01T00:21:37.550Z,17.80
2023-01-01T00:23:10.577Z,17.70
2023-01-01T00:24:43.628Z,17.60
2023-01-01T00:26:19.523Z,17.60
2023-01-01T00:27:52.655Z,17.60
2023-01-01T00:29:25.701Z,17.70
2023-01-01T00:30:58.747Z,17.70
2023-01-01T00:32:31.841Z,17.80
2023-01-01T00:34:04.917Z,17.80
2023-01-01T00:35:37.955Z,17.70
2023-01-01T00:37:11.632Z,17.60
2023-01-01T00:38:46.098Z,17.70
2023-01-01T00:40:19.696Z,17.60
2023-01-01T00:41:54.139Z,17.60
2023-01-01T00:43:27.230Z,17.60
2023-01-01T00:45:00.288Z,17.60
2023-01-01T00:46:33.331Z,17.50
2023-01-01T00:48:06.994Z,17.50
2023-01-01T00:49:40.044Z,17.50
2023-01-01T00:51:13.087Z,17.50
2023-01-01T00:52:46.120Z,17.50
2023-01-01T00:54:19.170Z,17.60
2023-01-01T00:55:55.036Z,17.60
2023-01-01T00:57:29.442Z,17.60
2023-01-01T00:59:02.527Z,17.60
2023-01-01T01:00:35.663Z,17.70
2023-01-01T01:02:08.824Z,17.60
2023-01-01T01:03:42.034Z,17.50
2023-01-01T01:05:15.055Z,17.50
2023-01-01T01:06:48.305Z,17.40
2023-01-01T01:08:26.987Z,17.40
2023-01-01T01:10:03.703Z,17.40
2023-01-01T01:11:36.757Z,17.50
2023-01-01T01:13:11.152Z,17.50
2023-01-01T01:14:44.194Z,17.50
2023-01-01T01:16:20.583Z,17.50
2023-01-01T01:17:53.640Z,17.50
2023-01-01T01:19:27.212Z,17.50
2023-01-01T01:21:00.245Z,17.50
2023-01-01T01:22:35.592Z,17.40
2023-01-01T01:24:08.744Z,17.40
2023-01-01T01:25:41.827Z,17.40
2023-01-01T01:27:14.903Z,17.40
2023-01-01T01:28:50.311Z,17.30
2023-01-01T01:30:23.501Z,17.20
2023-01-01T01:31:56.678Z,17.40
2023-01-01T01:33:29.737Z,17.40
2023-01-01T01:35:02.826Z,17.40
2023-01-01T01:36:35.884Z,17.40
2023-01-01T01:38:08.946Z,17.40
2023-01-01T01:39:42.219Z,17.30
2023-01-01T01:41:26.942Z,17.20
2023-01-01T01:43:01.247Z,17.20
2023-01-01T01:44:56.344Z,17.30
2023-01-01T01:46:35.538Z,17.30
2023-01-01T01:48:11.255Z,17.20
2023-01-01T01:49:45.347Z,17.10
2023-01-01T01:51:22.974Z,17.10
2023-01-01T01:53:05.007Z,17.00
2023-01-01T01:54:43.088Z,17.00
2023-01-01T01:56:21.072Z,17.00
2023-01-01T01:57:54.543Z,16.80
2023-01-01T01:59:31.263Z,17.00
2023-01-01T02:01:06.170Z,16.90
2023-01-01T02:02:44.547Z,17.00
2023-01-01T02:04:18.693Z,16.80
2023-01-01T02:05:53.087Z,16.90
2023-01-01T02:07:28.560Z,16.70
2023-01-01T02:09:05.133Z,16.80
2023-01-01T02:10:38.736Z,16.80
2023-01-01T02:12:10.855Z,16.70
2023-01-01T02:13:44.128Z,16.60
2023-01-01T02:15:17.413Z,16.70
2023-01-01T02:16:58.845Z,16.80
2023-01-01T02:18:40.069Z,16.80
2023-01-01T02:20:26.693Z,16.80
2023-01-01T02:22:07.876Z,17.00
2023-01-01T02:24:01.911Z,16.90
2023-01-01T02:25:45.605Z,16.90
2023-01-01T02:27:26.711Z,16.90
2023-01-01T02:29:05.631Z,16.90
2023-01-01T02:30:42.912Z,16.90
2023-01-01T02:32:20.320Z,17.00
2023-01-01T02:33:56.764Z,16.90
2023-01-01T02:35:38.670Z,16.70
2023-01-01T02:37:16.005Z,16.70
2023-01-01T02:38:53.293Z,16.70
2023-01-01T02:40:28.458Z,16.50
2023-01-01T02:42:03.915Z,16.50
2023-01-01T02:43:37.302Z,16.40
2023-01-01T02:45:12.741Z,16.20
2023-01-01T02:46:45.819Z,16.20
2023-01-01T02:48:39.872Z,16.30
2023-01-01T02:50:17.288Z,16.30
2023-01-01T02:52:02.484Z,16.20
2023-01-01T02:53:39.202Z,16.30
2023-01-01T02:55:25.270Z,16.10
2023-01-01T02:57:07.092Z,16.30
2023-01-01T02:59:02.746Z,16.20
2023-01-01T03:00:36.373Z,16.30
2023-01-01T03:02:20.052Z,16.40
2023-01-01T03:04:02.763Z,16.40
2023-01-01T03:06:02.500Z,16.60
2023-01-01T03:07:44.136Z,16.60
2023-01-01T03:09:26.612Z,16.60
2023-01-01T03:11:06.257Z,16.50
2023-01-01T03:12:45.736Z,16.50
2023-01-01T03:14:26.699Z,16.60
2023-01-01T03:16:07.162Z,16.70
2023-01-01T03:17:47.235Z,16.70
2023-01-01T03:19:23.838Z,16.60
2023-01-01T03:21:00.528Z,16.60
2023-01-01T03:24:10.203Z,16.70
2023-01-01T03:25:49.217Z,16.90
2023-01-01T03:27:28.159Z,16.90
2023-01-01T03:29:02.159Z,16.80
2023-01-01T03:30:39.536Z,16.80
2023-01-01T03:32:19.888Z,16.70
2023-01-01T03:33:56.755Z,16.70
2023-01-01T03:35:36.412Z,16.70
2023-01-01T03:37:15.993Z,16.80
2023-01-01T03:38:52.046Z,16.90
2023-01-01T03:40:27.521Z,17.00
2023-01-01T03:42:11.238Z,17.10
2023-01-01T03:43:49.512Z,17.10
2023-01-01T03:45:26.911Z,16.90
2023-01-01T03:47:01.001Z,16.80
2023-01-01T03:49:02.264Z,16.80
2023-01-01T03:50:46.213Z,16.70
2023-01-01T03:52:33.267Z,16.80
2023-01-01T03:54:10.228Z,16.70
2023-01-01T03:55:47.731Z,16.80
2023-01-01T03:57:25.972Z,16.80
2023-01-01T03:59:03.244Z,16.70
2023-01-01T04:00:39.248Z,16.70
2023-01-01T04:02:16.741Z,16.70
2023-01-01T04:03:51.646Z,16.70
2023-01-01T04:05:25.685Z,16.60
2023-01-01T04:07:02.041Z,16.60
2023-01-01T04:08:42.536Z,16.70
2023-01-01T04:10:19.720Z,16.70
2023-01-01T04:12:01.693Z,16.60
2023-01-01T04:13:47.485Z,16.60
2023-01-01T04:15:22.624Z,16.60
2023-01-01T04:16:56.401Z,16.70
2023-01-01T04:18:29.462Z,16.60
2023-01-01T04:20:04.237Z,16.40
2023-01-01T04:21:37.300Z,16.30
2023-01-01T04:23:10.557Z,16.30
2023-01-01T04:24:43.628Z,16.30
2023-01-01T04:26:16.153Z,16.40
2023-01-01T04:27:49.363Z,16.40
2023-01-01T04:29:23.687Z,16.40
2023-01-01T04:32:30.311Z,16.50
2023-01-01T04:34:03.561Z,16.60
2023-01-01T04:35:38.022Z,16.60
2023-01-01T04:37:13.421Z,16.60
2023-01-01T04:38:47.035Z,16.50
2023-01-01T04:40:20.410Z,16.70
2023-01-01T04:41:53.472Z,16.70
2023-01-01T04:43:25.644Z,16.60
2023-01-01T04:44:58.753Z,16.50
2023-01-01T04:46:31.868Z,16.50
2023-01-01T04:48:05.937Z,16.70
2023-01-01T04:49:39.259Z,16.80
2023-01-01T04:51:15.944Z,16.80
2023-01-01T04:52:51.314Z,16.90
2023-01-01T04:54:24.405Z,16.90
2023-01-01T04:55:57.696Z,16.90
2023-01-01T04:57:30.930Z,17.00
2023-01-01T04:59:04.354Z,17.00
2023-01-01T05:00:37.463Z,17.00
2023-01-01T05:02:10.879Z,17.00
2023-01-01T05:03:44.157Z,17.00
2023-01-01T05:05:19.072Z,17.10
2023-01-01T05:06:53.590Z,17.30
2023-01-01T05:08:26.834Z,17.20
2023-01-01T05:09:59.922Z,17.10
2023-01-01T05:11:33.512Z,17.10
2023-01-01T05:13:09.060Z,17.00
2023-01-01T05:14:42.118Z,16.90
2023-01-01T05:16:17.493Z,16.80
2023-01-01T05:17:50.572Z,17.00
2023-01-01T05:19:23.708Z,16.90
2023-01-01T05:21:00.948Z,16.80
2023-01-01T05:22:35.418Z,16.70
2023-01-01T05:24:10.665Z,16.60
2023-01-01T05:25:43.475Z,16.60
2023-01-01T05:27:16.533Z,16.70
2023-01-01T05:28:49.673Z,16.70
2023-01-01T05:30:22.879Z,16.80
2023-01-01T05:31:56.002Z,16.80
2023-01-01T05:33:28.321Z,16.70
2023-01-01T05:35:01.347Z,16.60
2023-01-01T05:36:38.831Z,16.70
2023-01-01T05:38:13.579Z,16.70
2023-01-01T05:39:46.716Z,16.60
2023-01-01T05:41:20.300Z,16.50
2023-01-01T05:42:53.381Z,16.60
2023-01-01T05:44:26.468Z,16.60
2023-01-01T05:46:03.292Z,16.60
2023-01-01T05:47:36.378Z,16.50
2023-01-01T05:49:11.040Z,16.40
2023-01-01T05:50:44.100Z,16.20
2023-01-01T05:52:17.546Z,16.20
2023-01-01T05:53:55.802Z,16.30
2023-01-01T05:55:28.967Z,16.30
2023-01-01T05:57:02.028Z,16.30
2023-01-01T05:58:36.536Z,16.40
2023-01-01T06:00:10.621Z,16.30
2023-01-01T06:01:46.180Z,16.30
2023-01-01T06:03:19.042Z,16.30
2023-01-01T06:04:52.154Z,16.40
2023-01-01T06:06:28.680Z,16.30
2023-01-01T06:08:01.834Z,16.30
2023-01-01T06:09:36.333Z,16.30
2023-01-01T06:11:12.776Z,16.20
2023-01-01T06:12:45.815Z,16.20
2023-01-01T06:14:18.872Z,16.00
2023-01-01T06:15:55.187Z,16.00
2023-01-01T06:17:28.244Z,16.20
2023-01-01T06:19:01.369Z,16.20
2023-01-01T06:20:34.462Z,16.30
2023-01-01T06:22:07.722Z,16.20
2023-01-01T06:23:41.340Z,16.20
2023-01-01T06:25:15.937Z,16.20
2023-01-01T06:26:49.076Z,16.20
2023-01-01T06:28:22.131Z,16.20
2023-01-01T06:29:55.319Z,16.10
2023-01-01T06:31:31.939Z,16.10
2023-01-01T06:33:07.434Z,16.00
2023-01-01T06:34:40.539Z,16.00
2023-01-01T06:36:15.475Z,16.10
2023-01-01T06:37:48.546Z,16.10
2023-01-01T06:39:21.635Z,16.10
2023-01-01T06:41:00.752Z,16.10
2023-01-01T06:42:34.204Z,16.10
2023-01-01T06:44:07.532Z,16.10
2023-01-01T06:45:40.603Z,16.10
2023-01-01T06:47:13.721Z,16.20
2023-01-01T06:48:48.404Z,16.20
2023-01-01T06:50:21.519Z,16.20
2023-01-01T06:51:54.718Z,16.20
2023-01-01T06:53:27.313Z,16.20
2023-01-01T06:55:00.386Z,16.20
2023-01-01T06:56:35.390Z,16.20
2023-01-01T06:58:09.903Z,16.20
2023-01-01T06:59:43.156Z,16.30
2023-01-01T07:01:18.942Z,16.30
2023-01-01T07:02:52.349Z,16.30
2023-01-01T07:04:25.543Z,16.30
2023-01-01T07:05:58.646Z,16.30
2023-01-01T07:07:35.883Z,16.30
2023-01-01T07:09:10.347Z,16.40
2023-01-01T07:10:43.425Z,16.30
2023-01-01T07:12:17.871Z,16.30
2023-01-01T07:13:50.003Z,16.20
2023-01-01T07:15:23.080Z,16.30
2023-01-01T07:16:56.177Z,16.30
2023-01-01T07:18:29.547Z,16.40
2023-01-01T07:20:02.708Z,16.40
2023-01-01T07:21:41.658Z,16.50
2023-01-01T07:23:14.786Z,16.40
2023-01-01T07:24:49.365Z,16.40
2023-01-01T07:26:22.455Z,16.40
2023-01-01T07:27:57.009Z,16.30
2023-01-01T07:29:30.137Z,16.30
2023-01-01T07:31:02.254Z,16.30
2023-01-01T07:32:35.356Z,16.30
2023-01-01T07:34:10.642Z,16.30
2023-01-01T07:35:44.858Z,16.20
2023-01-01T07:37:17.980Z,16.30
2023-01-01T07:38:51.094Z,16.30
2023-01-01T07:40:24.177Z,16.40
2023-01-01T07:41:57.324Z,16.40
2023-01-01T07:43:31.760Z,16.40
2023-01-01T07:45:05.541Z,16.50
2023-01-01T07:46:38.933Z,16.60
2023-01-01T07:48:16.067Z,16.70
2023-01-01T07:49:49.149Z,16.80
2023-01-01T07:51:23.536Z,16.80
2023-01-01T07:52:57.676Z,16.90
2023-01-01T07:54:30.778Z,16.90
2023-01-01T07:56:04.170Z,16.80
2023-01-01T07:57:37.269Z,16.80
2023-01-01T07:59:15.570Z,16.70
2023-01-01T08:00:51.729Z,16.60
2023-01-01T08:02:25.138Z,16.50
2023-01-01T08:03:58.272Z,16.50
2023-01-01T08:05:31.401Z,16.40
2023-01-01T08:07:04.493Z,16.30
2023-01-01T08:08:37.700Z,16.30
2023-01-01T08:10:11.619Z,16.30
2023-01-01T08:11:44.714Z,16.30
2023-01-01T08:13:17.781Z,16.30
2023-01-01T08:14:52.706Z,16.30
2023-01-01T08:16:25.867Z,16.40
2023-01-01T08:17:59.331Z,16.50
2023-01-01T08:19:32.398Z,16.50
2023-01-01T08:21:06.286Z,16.50
2023-01-01T08:22:39.422Z,16.60
2023-01-01T08:24:12.521Z,16.70
2023-01-01T08:25:45.633Z,16.70
2023-01-01T08:27:18.709Z,16.60
2023-01-01T08:28:57.049Z,16.70
2023-01-01T08:30:32.087Z,16.80
2023-01-01T08:32:05.548Z,16.90
2023-01-01T08:33:38.620Z,16.90
2023-01-01T08:35:11.753Z,17.00
2023-01-01T08:36:44.872Z,17.00
2023-01-01T08:38:18.014Z,17.10
2023-01-01T08:39:51.698Z,17.20
2023-01-01T08:41:24.852Z,17.40
2023-01-01T08:42:57.933Z,17.40
2023-01-01T08:44:31.041Z,17.50
2023-01-01T08:46:05.813Z,17.60
2023-01-01T08:47:38.894Z,17.60
2023-01-01T08:49:12.047Z,17.60
2023-01-01T08:50:45.114Z,17.60
2023-01-01T08:52:18.870Z,17.70
2023-01-01T08:53:51.937Z,17.80
2023-01-01T08:55:24.999Z,17.90
2023-01-01T08:56:58.117Z,18.00
2023-01-01T08:58:31.940Z,17.90
2023-01-01T09:00:08.761Z,18.00
2023-01-01T09:01:43.339Z,18.20
2023-01-01T09:03:16.685Z,18.40
2023-01-01T09:04:49.855Z,18.80
2023-01-01T09:06:23.076Z,19.10
2023-01-01T09:07:56.165Z,19.30
2023-01-01T09:09:31.691Z,19.60
2023-01-01T09:11:05.838Z,19.40
2023-01-01T09:12:38.947Z,19.30
2023-01-01T09:14:12.001Z,19.10
2023-01-01T09:15:45.166Z,18.90
2023-01-01T09:17:19.627Z,18.70
2023-01-01T09:18:52.813Z,18.20
2023-01-01T09:20:26.201Z,18.30
2023-01-01T09:21:59.535Z,18.30
2023-01-01T09:23:32.702Z,18.20
2023-01-01T09:25:06.402Z,18.00
2023-01-01T09:26:39.555Z,17.90
2023-01-01T09:28:14.151Z,17.90
2023-01-01T09:29:47.211Z,17.90
2023-01-01T09:31:20.398Z,17.70
2023-01-01T09:32:55.001Z,17.50
2023-01-01T09:34:28.149Z,17.60
2023-01-01T09:36:14.618Z,17.60
2023-01-01T09:37:47.757Z,17.80
2023-01-01T09:39:20.822Z,17.60
2023-01-01T09:41:07.581Z,17.70
2023-01-01T09:42:48.525Z,17.70
2023-01-01T09:44:50.361Z,17.70
2023-01-01T09:46:31.467Z,17.60
2023-01-01T09:48:11.682Z,17.40
2023-01-01T09:49:47.087Z,17.50
2023-01-01T09:51:22.734Z,17.50
2023-01-01T09:52:58.052Z,17.70
2023-01-01T09:54:33.645Z,17.70
2023-01-01T09:56:07.765Z,17.90
2023-01-01T09:57:40.920Z,17.80
2023-01-01T09:59:14.041Z,17.90
2023-01-01T10:00:53.345Z,18.00
2023-01-01T10:02:46.725Z,18.30
2023-01-01T10:04:41.049Z,18.60
2023-01-01T10:06:21.814Z,18.40
2023-01-01T10:08:01.815Z,18.30
2023-01-01T10:09:45.560Z,18.40
2023-01-01T10:11:24.896Z,18.40
2023-01-01T10:13:04.498Z,18.30
2023-01-01T10:14:40.311Z,18.40
2023-01-01T10:16:24.360Z,18.60
2023-01-01T10:18:01.479Z,18.70
2023-01-01T10:19:42.325Z,18.80
2023-01-01T10:21:19.149Z,18.70
2023-01-01T10:22:56.696Z,18.70
2023-01-01T10:24:38.885Z,18.90
2023-01-01T10:26:16.838Z,19.00
2023-01-01T10:27:59.411Z,19.10
2023-01-01T10:29:39.691Z,18.80
2023-01-01T10:31:17.403Z,18.90
2023-01-01T10:32:52.073Z,18.90
2023-01-01T10:34:28.090Z,18.80
2023-01-01T10:36:02.700Z,18.80
2023-01-01T10:37:38.000Z,18.80
2023-01-01T10:39:15.681Z,18.90
2023-01-01T10:40:49.274Z,18.80
2023-01-01T10:42:22.370Z,18.70
2023-01-01T10:43:55.689Z,18.70
2023-01-01T10:45:33.100Z,18.60
2023-01-01T10:47:21.982Z,18.60
2023-01-01T10:49:07.245Z,18.70
2023-01-01T10:50:46.580Z,18.90
2023-01-01T10:52:26.346Z,18.80
2023-01-01T10:53:59.489Z,18.80
2023-01-01T10:55:32.765Z,18.80
2023-01-01T10:57:15.904Z,18.70
2023-01-01T10:58:50.864Z,18.80
2023-01-01T11:00:26.345Z,18.70
2023-01-01T11:02:16.608Z,18.60
2023-01-01T11:03:59.323Z,18.50
2023-01-01T11:05:32.602Z,18.50
2023-01-01T11:07:08.094Z,18.60
2023-01-01T11:08:49.454Z,18.50
2023-01-01T11:10:25.796Z,18.60
2023-01-01T11:12:07.899Z,18.70
2023-01-01T11:13:42.806Z,18.70
2023-01-01T11:15:36.805Z,18.80
2023-01-01T11:17:10.884Z,19.10
2023-01-01T11:18:44.110Z,19.60
2023-01-01T11:20:21.108Z,20.10
2023-01-01T11:21:54.384Z,19.90
2023-01-01T11:23:33.129Z,20.10
2023-01-01T11:25:22.573Z,20.30
2023-01-01T11:27:19.364Z,20.40
2023-01-01T11:29:04.511Z,20.10
2023-01-01T11:30:37.691Z,20.30
2023-01-01T11:32:13.821Z,20.30
2023-01-01T11:33:51.188Z,20.50
2023-01-01T11:35:26.199Z,20.80
2023-01-01T11:37:20.960Z,20.50
2023-01-01T11:39:09.386Z,20.20
2023-01-01T11:40:50.271Z,20.10
2023-01-01T11:42:26.423Z,20.30
2023-01-01T11:43:59.552Z,20.00
2023-01-01T11:45:37.903Z,19.90
2023-01-01T11:47:24.571Z,19.70
2023-01-01T11:48:58.899Z,19.50
2023-01-01T11:50:35.108Z,19.50
2023-01-01T11:52:30.128Z,19.50
2023-01-01T11:54:24.226Z,19.20
2023-01-01T11:56:04.819Z,19.00
2023-01-01T11:57:42.205Z,18.90
2023-01-01T11:59:19.306Z,18.70
2023-01-01T12:00:55.477Z,18.60
2023-01-01T12:02:35.304Z,18.60
2023-01-01T12:04:12.550Z,18.60
2023-01-01T12:05:51.126Z,18.50
2023-01-01T12:07:29.483Z,18.50
2023-01-01T12:09:17.730Z,18.50
2023-01-01T12:10:55.326Z,18.60
2023-01-01T12:12:35.477Z,18.60
2023-01-01T12:14:18.265Z,18.60
2023-01-01T12:15:59.953Z,18.60
2023-01-01T12:17:38.838Z,18.60
2023-01-01T12:19:16.808Z,18.50
2023-01-01T12:20:55.121Z,18.40
2023-01-01T12:22:28.549Z,18.40
2023-01-01T12:24:02.955Z,18.40
2023-01-01T12:25:41.860Z,18.40
2023-01-01T12:27:24.275Z,18.30
2023-01-01T12:29:28.447Z,18.30
2023-01-01T12:31:07.846Z,18.40
2023-01-01T12:33:19.371Z,18.40
2023-01-01T12:34:58.398Z,18.30
2023-01-01T12:36:41.647Z,18.30
2023-01-01T12:38:27.590Z,18.30
2023-01-01T12:40:32.311Z,18.30
2023-01-01T12:42:14.205Z,18.20
2023-01-01T12:43:56.822Z,18.40
2023-01-01T12:45:47.860Z,18.40
2023-01-01T12:47:37.915Z,18.40
2023-01-01T12:49:43.756Z,18.50
2023-01-01T12:51:31.386Z,18.50
2023-01-01T12:53:17.546Z,18.50
2023-01-01T12:55:35.913Z,18.50
2023-01-01T12:57:15.828Z,18.40
2023-01-01T12:58:52.818Z,18.30
2023-01-01T13:00:27.030Z,18.20
2023-01-01T13:02:10.352Z,18.20
2023-01-01T13:03:50.293Z,18.20
2023-01-01T13:05:26.796Z,18.10
2023-01-01T13:07:05.659Z,18.00
2023-01-01T13:08:41.082Z,18.00
2023-01-01T13:10:24.922Z,17.90
2023-01-01T13:12:01.362Z,17.90
2023-01-01T13:13:34.488Z,17.80
2023-01-01T13:15:37.287Z,17.80
2023-01-01T13:17:21.351Z,17.80
2023-01-01T13:18:59.021Z,17.70
2023-01-01T13:20:39.495Z,17.70
2023-01-01T13:22:39.050Z,17.70
2023-01-01T13:24:22.393Z,17.60
2023-01-01T13:26:30.869Z,17.60
2023-01-01T13:28:11.700Z,17.60
2023-01-01T13:29:47.311Z,17.50
2023-01-01T13:31:56.584Z,17.50
2023-01-01T13:33:33.218Z,17.40
2023-01-01T13:35:18.200Z,17.40
2023-01-01T13:36:51.269Z,17.30
2023-01-01T13:38:45.765Z,17.20
2023-01-01T13:40:50.965Z,17.20
2023-01-01T13:42:51.931Z,17.20
2023-01-01T13:44:25.248Z,17.10
2023-01-01T13:46:12.345Z,17.10
2023-01-01T13:48:13.882Z,17.10
2023-01-01T13:50:15.131Z,17.00
2023-01-01T13:52:36.809Z,17.00
2023-01-01T13:54:41.634Z,16.80
2023-01-01T13:56:31.083Z,16.70
2023-01-01T13:58:28.535Z,16.70
2023-01-01T14:00:16.217Z,16.70
2023-01-01T14:01:59.264Z,16.60
2023-01-01T14:03:39.580Z,16.50
2023-01-01T14:05:18.891Z,16.50
2023-01-01T14:06:54.889Z,16.40
2023-01-01T14:08:32.577Z,16.30
2023-01-01T14:10:23.799Z,16.20
2023-01-01T14:11:57.472Z,16.10
2023-01-01T14:13:32.527Z,16.00
2023-01-01T14:15:17.124Z,15.80
2023-01-01T14:16:50.227Z,15.60
2023-01-01T14:18:29.945Z,15.50
2023-01-01T14:20:06.935Z,15.50
2023-01-01T14:21:41.876Z,15.60
2023-01-01T14:23:20.226Z,16.00
2023-01-01T14:24:54.649Z,16.00
2023-01-01T14:26:29.825Z,15.90
2023-01-01T14:28:03.804Z,16.00
2023-01-01T14:29:37.037Z,16.10
2023-01-01T14:31:13.643Z,16.20
2023-01-01T14:32:46.795Z,16.20
2023-01-01T14:34:25.474Z,16.20
2023-01-01T14:36:00.206Z,16.20
2023-01-01T14:37:34.657Z,16.20
2023-01-01T14:39:28.039Z,16.10
2023-01-01T14:41:09.482Z,16.00
2023-01-01T14:42:44.281Z,16.00
2023-01-01T14:44:20.038Z,16.10
2023-01-01T14:45:53.425Z,16.10
2023-01-01T14:47:31.852Z,16.00
2023-01-01T14:49:11.131Z,15.90
2023-01-01T14:50:49.630Z,15.80
2023-01-01T14:52:26.128Z,15.70
2023-01-01T14:54:03.423Z,15.80
2023-01-01T14:55:41.728Z,15.80
2023-01-01T14:57:20.835Z,15.80
2023-01-01T14:58:54.372Z,15.90
2023-01-01T15:00:29.482Z,16.00
2023-01-01T15:02:03.842Z,16.00
2023-01-01T15:03:37.144Z,15.90
2023-01-01T15:05:34.793Z,15.80
2023-01-01T15:07:21.626Z,15.80
2023-01-01T15:08:55.043Z,15.80
2023-01-01T15:10:33.065Z,15.70
2023-01-01T15:12:06.456Z,15.70
2023-01-01T15:13:39.563Z,15.80
2023-01-01T15:15:37.562Z,15.90
2023-01-01T15:17:12.531Z,15.90
2023-01-01T15:18:46.658Z,15.80
2023-01-01T15:20:23.247Z,15.80
2023-01-01T15:21:56.677Z,15.70
2023-01-01T15:23:30.011Z,15.50
2023-01-01T15:25:04.137Z,15.60
2023-01-01T15:26:44.106Z,15.60
2023-01-01T15:28:20.555Z,15.50
2023-01-01T15:29:53.995Z,15.60
2023-01-01T15:31:36.551Z,15.60
2023-01-01T15:33:11.221Z,15.70
2023-01-01T15:34:49.669Z,15.60
2023-01-01T15:36:25.749Z,15.60
2023-01-01T15:38:01.932Z,15.70
2023-01-01T15:39:45.290Z,15.70
2023-01-01T15:41:26.519Z,15.60
2023-01-01T15:43:19.713Z,15.50
2023-01-01T15:44:52.922Z,15.20
2023-01-01T15:46:32.568Z,15.00
2023-01-01T15:48:21.296Z,14.80
2023-01-01T15:50:08.976Z,14.50
2023-01-01T15:51:43.858Z,14.30
2023-01-01T15:53:21.062Z,14.20
2023-01-01T15:54:54.706Z,14.00
2023-01-01T15:56:29.485Z,13.80
2023-01-01T15:58:04.495Z,13.60
2023-01-01T15:59:39.320Z,13.40
2023-01-01T16:01:14.771Z,13.30
2023-01-01T16:02:48.222Z,13.30
2023-01-01T16:04:28.706Z,13.10
2023-01-01T16:06:02.869Z,13.10
2023-01-01T16:07:35.974Z,13.00
2023-01-01T16:09:12.020Z,12.90
2023-01-01T16:10:45.760Z,12.90
2023-01-01T16:12:18.936Z,12.80
2023-01-01T16:13:52.228Z,12.80
2023-01-01T16:15:27.428Z,12.70
2023-01-01T16:17:02.180Z,12.80
2023-01-01T16:18:36.955Z,12.80
2023-01-01T16:20:14.937Z,13.20
2023-01-01T16:21:48.002Z,13.70
2023-01-01T16:23:21.373Z,13.80
2023-01-01T16:24:54.886Z,13.80
2023-01-01T16:26:28.107Z,13.90
2023-01-01T16:28:01.196Z,13.80
2023-01-01T16:29:34.523Z,13.90
2023-01-01T16:31:13.823Z,14.00
2023-01-01T16:32:48.984Z,13.90
2023-01-01T16:34:22.208Z,14.00
2023-01-01T16:35:55.353Z,14.10
2023-01-01T16:37:28.407Z,14.10
2023-01-01T16:39:01.729Z,14.10
2023-01-01T16:40:37.929Z,14.20
2023-01-01T16:42:13.023Z,14.20
2023-01-01T16:43:47.289Z,14.10
2023-01-01T16:45:20.376Z,14.00
2023-01-01T16:46:54.826Z,13.90
2023-01-01T16:48:28.093Z,13.80
2023-01-01T16:50:01.198Z,13.70
2023-01-01T16:51:35.148Z,13.60
2023-01-01T16:53:08.217Z,13.60
2023-01-01T16:54:41.601Z,13.50
2023-01-01T16:56:15.550Z,13.70
2023-01-01T16:57:48.804Z,13.70
2023-01-01T16:59:22.927Z,13.70
2023-01-01T17:01:01.247Z,13.60
2023-01-01T17:02:36.016Z,13.50
2023-01-01T17:04:09.365Z,13.50
2023-01-01T17:05:44.581Z,13.40
2023-01-01T17:07:18.152Z,13.30
2023-01-01T17:08:51.228Z,13.30
2023-01-01T17:10:24.319Z,13.30
2023-01-01T17:11:58.960Z,13.20
2023-01-01T17:13:33.646Z,13.20
2023-01-01T17:15:08.005Z,13.20
2023-01-01T17:16:41.286Z,13.20
2023-01-01T17:18:15.767Z,13.30
2023-01-01T17:19:50.608Z,13.40
2023-01-01T17:21:23.870Z,13.50
2023-01-01T17:22:57.014Z,13.70
2023-01-01T17:24:30.078Z,13.70
2023-01-01T17:26:08.101Z,13.80
2023-01-01T17:27:41.317Z,13.90
2023-01-01T17:29:14.383Z,14.10
2023-01-01T17:30:47.526Z,14.10
2023-01-01T17:32:20.661Z,14.10
2023-01-01T17:33:55.631Z,14.10
2023-01-01T17:35:33.136Z,14.10
2023-01-01T17:37:06.760Z,14.20
2023-01-01T17:38:40.487Z,14.20
2023-01-01T17:40:14.125Z,14.30
2023-01-01T17:41:47.408Z,14.20
2023-01-01T17:43:20.578Z,14.10
2023-01-01T17:44:53.662Z,14.00
2023-01-01T17:46:29.693Z,14.00
2023-01-01T17:48:02.817Z,13.90
2023-01-01T17:49:37.431Z,13.80
2023-01-01T17:51:11.097Z,13.70
2023-01-01T17:52:44.192Z,13.60
2023-01-01T17:54:17.395Z,13.50
2023-01-01T17:55:50.464Z,13.40
2023-01-01T17:57:23.614Z,13.30
2023-01-01T17:58:56.818Z,13.20
2023-01-01T18:00:29.891Z,13.30
2023-01-01T18:02:03.460Z,13.40
2023-01-01T18:03:36.640Z,13.30
2023-01-01T18:05:11.484Z,13.10
2023-01-01T18:06:49.345Z,13.10
2023-01-01T18:08:25.611Z,13.10
2023-01-01T18:09:58.720Z,13.20
2023-01-01T18:11:33.290Z,13.20
2023-01-01T18:13:06.345Z,13.30
2023-01-01T18:14:40.327Z,13.30
2023-01-01T18:16:13.446Z,13.30
2023-01-01T18:17:46.525Z,13.10
2023-01-01T18:19:19.884Z,13.00
2023-01-01T18:21:01.535Z,13.00
2023-01-01T18:22:39.499Z,12.90
2023-01-01T18:24:17.189Z,12.80
2023-01-01T18:25:50.261Z,12.90
2023-01-01T18:27:23.420Z,12.90
2023-01-01T18:28:58.603Z,12.90
2023-01-01T18:30:31.671Z,12.80
2023-01-01T18:32:05.150Z,12.60
2023-01-01T18:33:38.805Z,12.60
2023-01-01T18:35:11.884Z,12.60
2023-01-01T18:36:46.996Z,12.60
2023-01-01T18:38:20.547Z,12.50
2023-01-01T18:39:53.621Z,12.50
2023-01-01T18:41:43.340Z,12.50
2023-01-01T18:43:20.482Z,12.40
2023-01-01T18:44:53.657Z,12.40
2023-01-01T18:46:26.823Z,12.30
2023-01-01T18:48:02.162Z,12.30
2023-01-01T18:49:37.486Z,12.20
2023-01-01T18:51:18.501Z,12.30
2023-01-01T18:52:54.405Z,12.30
2023-01-01T18:54:27.659Z,12.40
2023-01-01T18:56:11.082Z,12.30
2023-01-01T18:57:47.446Z,12.30
2023-01-01T18:59:22.700Z,12.20
2023-01-01T19:00:55.852Z,12.30
2023-01-01T19:02:37.795Z,12.20
2023-01-01T19:04:13.239Z,12.20
2023-01-01T19:05:47.809Z,12.10
2023-01-01T19:07:20.912Z,12.10
2023-01-01T19:09:14.565Z,12.10
2023-01-01T19:10:49.485Z,12.10
2023-01-01T19:12:24.667Z,12.10
2023-01-01T19:14:06.154Z,12.10
2023-01-01T19:15:39.225Z,12.10
2023-01-01T19:17:16.105Z,12.10
2023-01-01T19:18:49.319Z,12.00
2023-01-01T19:20:24.549Z,12.00
2023-01-01T19:22:07.604Z,12.00
2023-01-01T19:23:50.128Z,12.00
2023-01-01T19:25:36.566Z,12.00
2023-01-01T19:27:16.280Z,12.10
2023-01-01T19:28:52.908Z,12.20
2023-01-01T19:30:26.098Z,12.20
2023-01-01T19:31:59.629Z,12.20
2023-01-01T19:33:32.946Z,12.20
2023-01-01T19:35:10.683Z,12.30
2023-01-01T19:36:46.598Z,12.40
2023-01-01T19:38:19.771Z,12.40
2023-01-01T19:39:52.866Z,12.40
2023-01-01T19:41:27.808Z,12.40
2023-01-01T19:43:01.693Z,12.50
2023-01-01T19:44:36.105Z,12.50
2023-01-01T19:46:09.298Z,12.30
2023-01-01T19:47:43.409Z,12.40
2023-01-01T19:49:18.337Z,12.40
2023-01-01T19:50:52.211Z,12.50
2023-01-01T19:52:25.325Z,12.40
2023-01-01T19:53:58.619Z,12.30
2023-01-01T19:55:31.718Z,12.30
2023-01-01T19:57:06.173Z,12.30
2023-01-01T19:58:39.267Z,12.40
2023-01-01T20:00:13.132Z,12.40
2023-01-01T20:01:47.950Z,12.30
2023-01-01T20:03:52.676Z,12.40
2023-01-01T20:05:19.458Z,12.40
2023-01-01T20:06:53.075Z,12.50
2023-01-01T20:08:28.625Z,12.50
2023-01-01T20:10:01.752Z,12.30
2023-01-01T20:11:36.028Z,12.30
2023-01-01T20:13:10.517Z,12.10
2023-01-01T20:14:43.773Z,12.10
2023-01-01T20:16:16.947Z,12.00
2023-01-01T20:17:50.049Z,11.90
2023-01-01T20:19:23.164Z,11.80
2023-01-01T20:21:13.814Z,11.70
2023-01-01T20:22:46.955Z,11.70
2023-01-01T20:24:20.013Z,11.50
2023-01-01T20:25:53.334Z,11.40
2023-01-01T20:27:27.601Z,11.40
2023-01-01T20:29:19.288Z,11.40
2023-01-01T20:30:52.337Z,11.40
2023-01-01T20:32:25.892Z,11.30
2023-01-01T20:33:59.023Z,11.40
2023-01-01T20:35:49.421Z,11.40
2023-01-01T20:37:37.864Z,11.40
2023-01-01T20:39:10.967Z,11.30
2023-01-01T20:40:44.086Z,11.20
2023-01-01T20:42:17.152Z,11.20
2023-01-01T20:43:51.215Z,11.20
2023-01-01T20:45:25.709Z,11.20
2023-01-01T20:46:59.004Z,11.20
2023-01-01T20:48:32.085Z,11.20
2023-01-01T20:50:05.447Z,11.20
2023-01-01T20:51:38.561Z,11.20
2023-01-01T20:53:11.655Z,11.20